Time;durP1;ratioP1;P1;durP2;ratioP2;P2;SDS_P1;SDS_P2;PMS_P1;PMS_P2;Temp;Humidity;BMP_temperature;BMP_pressure;BME280_temperature;BME280_humidity;BME280_pressure;Samples;Min_cycle;Max_cycle;Signal;HPM_P1;HPM_P2
2021/07/18 00:00:52;;;;;;;16.27;6.07;;;;;;;18.38;76.27;101746.56;4995798;28;20493;-59
2021/07/18 00:03:20;;;;;;;16.13;5.50;;;;;;;18.32;76.25;101746.41;4996949;28;20467;-58
2021/07/18 00:05:47;;;;;;;13.10;6.10;;;;;;;18.45;76.30;101745.84;4997848;28;20464;-59
2021/07/18 00:08:15;;;;;;;15.57;6.03;;;;;;;18.25;76.25;101741.88;4996855;28;20484;-59
2021/07/18 00:10:42;;;;;;;15.50;5.50;;;;;;;18.29;76.58;101746.31;4995494;28;20477;-59
2021/07/18 00:13:10;;;;;;;13.10;6.10;;;;;;;18.29;76.79;101743.69;4996782;28;20493;-58
2021/07/18 00:15:39;;;;;;;10.47;4.87;;;;;;;18.30;76.88;101746.34;4995521;28;20455;-59
2021/07/18 00:18:08;;;;;;;12.73;5.40;;;;;;;18.28;76.85;101745.44;4996715;28;20801;-58
2021/07/18 00:20:36;;;;;;;13.77;5.20;;;;;;;18.33;76.73;101737.72;4995378;28;20491;-60
2021/07/18 00:23:03;;;;;;;11.20;5.07;;;;;;;18.25;76.80;101744.47;4996485;28;20934;-58
2021/07/18 00:25:32;;;;;;;14.23;5.23;;;;;;;18.33;76.81;101748.16;4996337;28;20472;-58
2021/07/18 00:27:59;;;;;;;14.30;5.37;;;;;;;18.29;76.68;101743.69;4994882;28;20536;-59
2021/07/18 00:30:27;;;;;;;12.20;5.83;;;;;;;18.41;76.94;101741.38;4996514;28;20486;-58
2021/07/18 00:32:56;;;;;;;37.47;21.23;;;;;;;18.34;76.66;101740.38;4995480;28;20477;-59
2021/07/18 00:35:24;;;;;;;8.93;5.50;;;;;;;18.33;76.92;101740.31;4996373;28;20471;-59
2021/07/18 00:37:51;;;;;;;40.27;24.00;;;;;;;18.32;77.10;101743.78;4995291;28;20587;-58
2021/07/18 00:40:19;;;;;;;36.73;20.30;;;;;;;18.37;77.13;101738.66;4996423;28;20493;-59
2021/07/18 00:42:47;;;;;;;23.07;10.13;;;;;;;18.20;77.29;101732.16;4995352;28;20572;-59
2021/07/18 00:45:14;;;;;;;15.43;8.07;;;;;;;18.07;77.75;101745.75;4997087;28;20776;-59
2021/07/18 00:47:42;;;;;;;14.90;5.27;;;;;;;18.01;77.47;101745.56;4996735;28;20939;-58
2021/07/18 00:50:13;;;;;;;9.73;5.70;;;;;;;18.09;77.84;101733.63;4996465;28;20786;-59
2021/07/18 00:52:42;;;;;;;18.23;6.50;;;;;;;18.09;78.12;101738.84;4995195;28;20481;-58
2021/07/18 00:55:11;;;;;;;12.97;6.37;;;;;;;18.00;78.01;101739.44;4996780;28;20539;-59
2021/07/18 00:57:39;;;;;;;18.37;8.37;;;;;;;18.12;78.28;101740.66;4994641;28;20482;-58
2021/07/18 01:00:08;;;;;;;19.17;6.67;;;;;;;18.13;78.07;101740.69;4995751;28;20948;-58
2021/07/18 01:02:36;;;;;;;23.30;7.50;;;;;;;18.02;78.00;101744.72;4995090;28;20485;-59
2021/07/18 01:05:05;;;;;;;13.80;6.57;;;;;;;18.06;78.03;101744.00;4999178;28;20772;-58
2021/07/18 01:07:35;;;;;;;12.43;4.90;;;;;;;18.16;77.72;101745.97;4994738;28;20787;-59
2021/07/18 01:10:04;;;;;;;13.37;5.30;;;;;;;17.97;77.79;101744.59;4996419;28;20493;-59
2021/07/18 01:12:31;;;;;;;18.33;6.07;;;;;;;17.94;78.15;101744.50;4995019;28;20543;-59
2021/07/18 01:14:59;;;;;;;14.90;6.27;;;;;;;17.77;78.92;101746.66;4996245;28;20919;-58
2021/07/18 01:17:28;;;;;;;12.53;6.00;;;;;;;17.81;79.10;101744.16;4994448;28;20489;-58
2021/07/18 01:19:57;;;;;;;16.20;6.97;;;;;;;17.87;79.00;101742.56;4996360;28;20474;-58
2021/07/18 01:22:26;;;;;;;13.37;6.40;;;;;;;17.93;78.31;101738.41;4994733;28;20478;-59
2021/07/18 01:24:53;;;;;;;13.90;6.20;;;;;;;17.81;78.57;101740.69;4996363;28;20471;-58
2021/07/18 01:27:21;;;;;;;11.83;6.23;;;;;;;17.86;78.56;101741.69;4994511;28;20486;-59
2021/07/18 01:29:48;;;;;;;19.30;6.10;;;;;;;17.84;78.55;101738.16;4995972;28;20809;-58
2021/07/18 01:32:16;;;;;;;21.30;5.70;;;;;;;17.80;78.76;101745.00;4994759;28;20786;-59
2021/07/18 01:34:43;;;;;;;11.87;6.60;;;;;;;17.76;79.11;101742.28;4996243;28;20778;-58
2021/07/18 01:37:11;;;;;;;17.30;6.00;;;;;;;17.76;79.24;101744.88;4994329;28;20485;-58
2021/07/18 01:39:40;;;;;;;10.83;5.80;;;;;;;17.78;79.27;101745.81;4993155;28;20460;-59
2021/07/18 01:42:08;;;;;;;14.40;5.80;;;;;;;17.65;79.19;101742.84;4994596;28;20496;-58
2021/07/18 01:44:35;;;;;;;13.17;6.10;;;;;;;17.68;79.58;101740.34;4995861;28;20463;-58
2021/07/18 01:47:03;;;;;;;12.03;5.60;;;;;;;17.71;79.46;101741.25;4994564;28;20497;-58
2021/07/18 01:49:31;;;;;;;13.73;5.73;;;;;;;17.90;79.14;101743.53;4995855;28;20483;-58
2021/07/18 01:51:58;;;;;;;16.47;5.67;;;;;;;17.74;79.41;101737.00;4994640;28;20487;-58
2021/07/18 01:54:27;;;;;;;12.27;5.73;;;;;;;17.72;79.50;101743.03;4996147;28;20505;-58
2021/07/18 01:56:55;;;;;;;10.50;6.10;;;;;;;17.89;79.36;101741.78;4994390;28;20484;-58
2021/07/18 01:59:23;;;;;;;14.57;6.30;;;;;;;17.64;79.27;101738.47;4995816;28;20559;-58
2021/07/18 02:01:51;;;;;;;10.67;5.67;;;;;;;17.65;79.71;101737.63;4997043;28;20494;-58
2021/07/18 02:04:18;;;;;;;12.40;5.60;;;;;;;17.71;79.56;101742.16;4995750;28;20465;-59
2021/07/18 02:06:46;;;;;;;8.83;5.73;;;;;;;17.76;79.60;101743.19;4994153;28;20487;-58
2021/07/18 02:09:13;;;;;;;14.30;6.30;;;;;;;17.64;80.03;101735.00;4995768;28;20944;-58
2021/07/18 02:11:41;;;;;;;10.43;5.50;;;;;;;17.62;79.88;101736.66;4997986;28;20494;-58
2021/07/18 02:14:10;;;;;;;11.97;6.00;;;;;;;17.50;80.46;101732.00;4999529;28;20464;-58
2021/07/18 02:16:37;;;;;;;11.67;6.30;;;;;;;17.56;80.33;101732.19;4998105;28;21334;-58
2021/07/18 02:19:07;;;;;;;9.97;5.73;;;;;;;17.61;80.42;101734.91;4999452;28;20461;-58
2021/07/18 02:21:35;;;;;;;20.43;6.53;;;;;;;17.58;80.63;101732.22;4998138;28;20487;-58
2021/07/18 02:24:03;;;;;;;14.77;6.90;;;;;;;17.67;80.51;101733.38;4999465;28;20518;-58
2021/07/18 02:26:31;;;;;;;16.77;6.43;;;;;;;17.70;80.28;101734.28;4997879;28;20498;-58
2021/07/18 02:29:00;;;;;;;13.03;6.13;;;;;;;17.64;80.27;101733.25;4999175;28;20481;-58
2021/07/18 02:31:29;;;;;;;18.80;6.57;;;;;;;17.64;80.61;101738.47;4997880;28;20476;-58
2021/07/18 02:33:56;;;;;;;20.50;6.47;;;;;;;17.68;80.56;101731.63;4999405;28;20510;-58
2021/07/18 02:36:24;;;;;;;14.13;6.60;;;;;;;17.79;80.42;101734.56;4997766;28;20489;-58
2021/07/18 02:38:54;;;;;;;12.27;6.97;;;;;;;17.57;80.69;101730.47;4999231;28;20465;-58
2021/07/18 02:41:21;;;;;;;14.73;6.73;;;;;;;17.61;80.78;101724.47;4997862;28;20488;-58
2021/07/18 02:43:49;;;;;;;16.00;7.57;;;;;;;17.50;80.94;101722.47;4998849;28;20462;-58
2021/07/18 02:46:16;;;;;;;21.50;6.90;;;;;;;17.48;81.30;101723.25;4999717;28;20483;-58
2021/07/18 02:48:45;;;;;;;17.30;7.03;;;;;;;17.51;81.25;101723.31;4999114;28;20488;-58
2021/07/18 02:51:13;;;;;;;16.57;6.10;;;;;;;17.40;81.38;101721.28;4997715;28;20562;-58
2021/07/18 02:53:41;;;;;;;15.10;7.40;;;;;;;17.34;81.63;101725.47;4999004;28;20475;-58
2021/07/18 02:56:08;;;;;;;13.97;7.80;;;;;;;17.43;81.73;101725.72;4996887;28;20758;-58
2021/07/18 02:58:36;;;;;;;18.50;6.90;;;;;;;17.48;81.62;101725.88;4998816;28;20460;-58
2021/07/18 03:01:03;;;;;;;18.87;7.60;;;;;;;17.60;81.52;101721.00;4997315;28;20485;-58
2021/07/18 03:03:31;;;;;;;17.80;7.13;;;;;;;17.56;81.27;101721.75;4998870;28;20513;-58
2021/07/18 03:06:00;;;;;;;16.60;6.80;;;;;;;17.63;81.18;101718.47;4997067;28;20484;-58
2021/07/18 03:08:27;;;;;;;15.43;6.50;;;;;;;17.49;81.19;101718.06;4998571;28;20472;-58
2021/07/18 03:10:55;;;;;;;22.43;7.30;;;;;;;17.58;81.56;101712.22;4997316;28;20753;-58
2021/07/18 03:13:22;;;;;;;16.00;7.60;;;;;;;17.51;81.45;101712.91;4998407;28;20471;-58
2021/07/18 03:15:50;;;;;;;13.90;7.20;;;;;;;17.52;81.47;101715.56;4999553;28;20459;-58
2021/07/18 03:18:18;;;;;;;12.23;7.40;;;;;;;17.53;81.38;101708.59;4998280;28;20462;-58
2021/07/18 03:20:45;;;;;;;31.47;10.70;;;;;;;17.50;81.54;101711.13;4997272;28;20776;-58
2021/07/18 03:23:14;;;;;;;20.63;10.10;;;;;;;17.69;81.62;101717.72;4997471;28;20493;-58
2021/07/18 03:25:42;;;;;;;26.23;12.97;;;;;;;17.74;81.69;101712.66;4996897;28;20469;-58
2021/07/18 03:28:09;;;;;;;19.10;8.50;;;;;;;17.73;81.52;101713.50;4998161;28;20509;-58
2021/07/18 03:30:37;;;;;;;17.90;8.47;;;;;;;17.84;81.25;101713.78;4996739;28;20490;-59
2021/07/18 03:33:05;;;;;;;13.87;7.50;;;;;;;18.00;80.77;101713.34;4997918;28;21009;-58
2021/07/18 03:35:32;;;;;;;16.93;7.67;;;;;;;17.86;80.63;101709.47;4997786;28;20461;-58
2021/07/18 03:38:00;;;;;;;14.13;7.43;;;;;;;17.92;80.07;101707.94;4997539;28;20462;-58
2021/07/18 03:40:29;;;;;;;19.03;7.23;;;;;;;17.81;80.84;101711.97;4997824;28;20474;-57
2021/07/18 03:42:57;;;;;;;17.93;7.57;;;;;;;17.90;80.40;101711.34;4996644;28;20798;-58
2021/07/18 03:45:25;;;;;;;16.60;6.50;;;;;;;17.90;80.41;101711.34;4997737;28;20487;-58
2021/07/18 03:47:52;;;;;;;17.83;8.13;;;;;;;17.84;80.30;101706.81;4996622;28;20482;-58
2021/07/18 03:50:21;;;;;;;37.03;19.23;;;;;;;17.84;80.84;101708.56;4997495;28;20569;-58
2021/07/18 03:52:50;;;;;;;11.77;7.30;;;;;;;17.91;80.47;101710.50;4996483;28;20538;-58
2021/07/18 03:55:17;;;;;;;17.93;8.20;;;;;;;17.80;80.35;101710.22;4997697;28;20465;-58
2021/07/18 03:57:46;;;;;;;21.40;10.83;;;;;;;17.74;81.01;101718.75;4998457;28;20474;-58
2021/07/18 04:00:16;;;;;;;13.10;6.47;;;;;;;17.86;81.00;101714.69;4997519;28;20487;-58
2021/07/18 04:02:44;;;;;;;20.50;8.07;;;;;;;17.90;81.01;101717.44;4996725;28;20563;-57
2021/07/18 04:05:12;;;;;;;15.87;7.77;;;;;;;17.98;80.83;101719.34;4997512;28;20459;-58
2021/07/18 04:07:40;;;;;;;14.20;6.40;;;;;;;17.93;80.89;101719.25;4995751;28;20484;-58
2021/07/18 04:10:08;;;;;;;10.80;6.03;;;;;;;17.99;81.30;101711.56;4997440;28;20492;-58
2021/07/18 04:12:36;;;;;;;11.50;6.17;;;;;;;18.07;81.26;101709.19;4995956;28;20486;-58
2021/07/18 04:15:06;;;;;;;17.40;6.30;;;;;;;17.91;81.22;101713.09;4997298;28;20921;-58
2021/07/18 04:17:33;;;;;;;15.53;6.13;;;;;;;18.00;81.51;101722.91;4995632;28;20492;-58
2021/07/18 04:20:01;;;;;;;11.50;5.90;;;;;;;18.00;81.30;101712.47;4997127;28;20485;-58
2021/07/18 04:22:29;;;;;;;20.70;6.30;;;;;;;18.07;81.53;101719.66;4995816;28;20490;-58
2021/07/18 04:24:56;;;;;;;24.80;12.93;;;;;;;18.14;81.33;101720.69;4997316;28;20471;-58
2021/07/18 04:27:24;;;;;;;11.70;5.53;;;;;;;18.22;81.08;101708.72;4995525;28;20507;-58
2021/07/18 04:29:51;;;;;;;9.77;5.20;;;;;;;18.10;81.16;101714.50;4996926;28;20493;-58
2021/07/18 04:32:20;;;;;;;11.17;5.40;;;;;;;18.11;80.98;101711.06;4995440;28;20473;-58
2021/07/18 04:34:48;;;;;;;12.23;4.80;;;;;;;18.17;80.85;101719.06;4997221;28;20457;-58
2021/07/18 04:37:15;;;;;;;14.80;6.40;;;;;;;18.16;80.80;101719.88;4995399;28;20498;-58
2021/07/18 04:39:43;;;;;;;7.70;5.43;;;;;;;18.16;80.63;101712.03;4996934;28;20458;-58
2021/07/18 04:42:10;;;;;;;12.60;5.97;;;;;;;18.25;80.76;101714.00;4995482;28;20489;-58
2021/07/18 04:44:38;;;;;;;15.70;6.40;;;;;;;18.32;80.50;101710.69;4997092;28;20463;-58
2021/07/18 04:47:06;;;;;;;11.17;6.00;;;;;;;18.21;80.86;101705.22;4997298;28;20496;-58
2021/07/18 04:49:35;;;;;;;11.73;5.50;;;;;;;18.21;81.13;101707.81;4996735;28;20485;-58
2021/07/18 04:52:02;;;;;;;15.53;5.60;;;;;;;18.31;80.85;101713.28;4995527;28;20485;-58
2021/07/18 04:54:31;;;;;;;15.53;5.97;;;;;;;18.28;80.80;101708.88;4996594;28;20473;-58
2021/07/18 04:56:58;;;;;;;12.80;5.50;;;;;;;18.25;80.91;101707.91;4995003;28;20485;-58
2021/07/18 04:59:26;;;;;;;11.43;5.50;;;;;;;18.29;80.92;101713.25;4996329;28;20469;-58
2021/07/18 05:01:54;;;;;;;10.40;4.83;;;;;;;18.30;81.21;101714.13;4995247;28;20501;-58
2021/07/18 05:04:22;;;;;;;9.10;5.60;;;;;;;18.35;81.15;101715.09;4996634;28;20458;-58
2021/07/18 05:06:51;;;;;;;6.97;4.20;;;;;;;18.41;81.16;101709.16;4994682;28;20485;-58
2021/07/18 05:09:19;;;;;;;10.37;5.80;;;;;;;18.48;81.14;101701.53;4996451;28;20896;-58
2021/07/18 05:11:46;;;;;;;9.83;5.83;;;;;;;18.70;80.89;101707.25;4994724;28;20482;-58
2021/07/18 05:14:14;;;;;;;10.00;5.33;;;;;;;18.78;80.26;101698.69;4998695;28;20893;-58
2021/07/18 05:16:41;;;;;;;11.07;5.60;;;;;;;18.81;79.87;101704.00;4994435;28;20495;-58
2021/07/18 05:19:09;;;;;;;10.67;5.50;;;;;;;18.69;80.25;101707.19;4995907;28;20471;-58
2021/07/18 05:21:36;;;;;;;15.47;5.30;;;;;;;18.81;80.12;101698.78;5003682;28;20477;-58
2021/07/18 05:24:06;;;;;;;12.20;5.50;;;;;;;18.81;80.04;101701.38;4997798;28;20465;-58
2021/07/18 05:26:33;;;;;;;95.07;59.07;;;;;;;18.74;80.31;101702.97;5013563;28;20488;-58
2021/07/18 05:29:01;;;;;;;51.77;31.63;;;;;;;18.92;80.41;101706.84;5007879;28;20470;-58
2021/07/18 05:31:28;;;;;;;31.10;19.07;;;;;;;19.02;79.88;101709.72;4994332;28;20577;-58
2021/07/18 05:33:56;;;;;;;20.00;11.23;;;;;;;18.94;79.85;101716.50;4996152;28;20465;-58
2021/07/18 05:36:23;;;;;;;14.90;5.00;;;;;;;19.17;79.38;101708.28;4994454;28;20571;-58
2021/07/18 05:38:51;;;;;;;36.83;20.93;;;;;;;19.32;78.91;101712.09;5014209;28;20466;-58
2021/07/18 05:41:20;;;;;;;54.93;33.20;;;;;;;19.48;78.68;101708.06;4994611;28;20482;-58
2021/07/18 05:43:47;;;;;;;10.53;5.50;;;;;;;19.33;78.35;101709.50;4995763;28;20882;-58
2021/07/18 05:46:15;;;;;;;15.27;9.43;;;;;;;19.40;78.51;101705.28;4997661;28;20483;-58
2021/07/18 05:48:42;;;;;;;22.37;13.50;;;;;;;19.38;78.64;101712.22;4999982;28;20750;-58
2021/07/18 05:51:10;;;;;;;17.80;5.03;;;;;;;19.55;78.26;101713.41;4998528;28;20488;-58
2021/07/18 05:53:37;;;;;;;10.47;5.50;;;;;;;19.60;77.75;101705.69;4999830;28;20466;-58
2021/07/18 05:56:05;;;;;;;8.20;4.47;;;;;;;19.49;77.55;101710.69;4978549;28;20476;-58
2021/07/18 05:58:34;;;;;;;117.87;69.23;;;;;;;19.64;77.52;101709.22;4982953;28;20905;-58
2021/07/18 06:01:02;;;;;;;42.90;24.70;;;;;;;19.65;76.77;101701.38;4999680;28;20490;-58
2021/07/18 06:03:30;;;;;;;16.83;7.23;;;;;;;19.62;77.34;101711.81;4999719;28;20892;-57
2021/07/18 06:05:57;;;;;;;12.07;6.57;;;;;;;19.72;76.76;101712.88;4998112;28;20472;-58
2021/07/18 06:08:25;;;;;;;16.17;7.63;;;;;;;19.63;76.95;101710.09;4999359;28;20538;-58
2021/07/18 06:10:52;;;;;;;8.47;4.33;;;;;;;19.61;76.69;101720.53;4998429;28;20491;-58
2021/07/18 06:13:20;;;;;;;9.17;4.30;;;;;;;19.81;76.29;101714.78;4999592;28;20779;-58
2021/07/18 06:15:49;;;;;;;20.73;12.00;;;;;;;19.81;75.64;101717.41;4997986;28;20463;-56
2021/07/18 06:18:16;;;;;;;10.73;4.13;;;;;;;20.00;75.23;101713.41;4999403;28;20460;-58
2021/07/18 06:20:44;;;;;;;14.83;6.73;;;;;;;19.93;75.18;101717.63;4997999;28;20789;-58
2021/07/18 06:23:11;;;;;;;11.03;5.93;;;;;;;20.14;74.32;101718.03;4999459;28;20490;-57
2021/07/18 06:25:59;;;;;;;14.23;7.40;;;;;;;20.15;73.32;101714.53;4997553;28;20486;-58
2021/07/18 06:28:26;;;;;;;65.87;30.03;;;;;;;20.36;73.14;101717.50;5004333;28;20471;-57
2021/07/18 06:30:56;;;;;;;11.70;4.20;;;;;;;20.36;72.46;101712.25;5017550;28;21924;-57
2021/07/18 06:33:24;;;;;;;8.87;3.50;;;;;;;20.50;72.26;101709.88;5018712;28;20509;-58
2021/07/18 06:35:51;;;;;;;41.50;14.83;;;;;;;20.61;72.18;101711.78;5017332;28;20459;-58
2021/07/18 06:38:19;;;;;;;16.87;7.40;;;;;;;20.53;72.77;101709.03;5018705;28;20488;-58
2021/07/18 06:40:46;;;;;;;14.60;6.50;;;;;;;20.37;71.03;101713.16;5014135;28;20787;-58
2021/07/18 06:43:14;;;;;;;7.43;3.10;;;;;;;20.55;71.27;101712.56;5018418;28;20521;-58
2021/07/18 06:45:42;;;;;;;9.27;3.33;;;;;;;20.62;70.25;101709.16;5017081;28;20460;-58
2021/07/18 06:48:11;;;;;;;13.23;3.60;;;;;;;20.62;70.14;101709.16;5018290;28;21011;-58
2021/07/18 06:50:38;;;;;;;7.20;3.73;;;;;;;20.80;70.21;101712.06;5017277;28;20491;-58
2021/07/18 06:53:06;;;;;;;8.27;3.40;;;;;;;20.81;70.92;101708.56;5018297;28;20514;-58
2021/07/18 06:55:35;;;;;;;27.10;10.10;;;;;;;20.88;70.33;101715.69;5017926;28;20463;-58
2021/07/18 06:58:03;;;;;;;12.03;6.43;;;;;;;20.78;70.06;101709.41;5017801;28;20465;-58
2021/07/18 07:00:30;;;;;;;6.50;3.40;;;;;;;20.82;69.67;101710.31;5015157;28;20507;-57
2021/07/18 07:02:58;;;;;;;10.07;3.73;;;;;;;20.89;68.74;101707.84;5004793;28;20461;-57
2021/07/18 07:05:28;;;;;;;10.67;3.83;;;;;;;21.14;68.82;101713.44;5006003;28;20826;-58
2021/07/18 07:07:55;;;;;;;9.13;3.60;;;;;;;20.97;68.65;101717.56;5016704;28;20480;-57
2021/07/18 07:10:23;;;;;;;36.23;23.57;;;;;;;21.10;67.60;101714.25;5004560;28;20489;-58
2021/07/18 07:12:51;;;;;;;9.00;3.40;;;;;;;21.22;67.33;101715.28;4996967;28;20491;-58
2021/07/18 07:15:18;;;;;;;100.97;56.90;;;;;;;21.26;67.83;101712.69;5001052;28;20777;-58
2021/07/18 07:17:46;;;;;;;8.40;3.93;;;;;;;21.37;66.43;101704.94;4977368;28;20498;-57
2021/07/18 07:20:15;;;;;;;32.97;18.80;;;;;;;21.37;66.96;101699.69;4978635;28;21003;-58
2021/07/18 07:22:43;;;;;;;17.13;9.37;;;;;;;21.29;66.99;101709.22;4977154;28;20483;-57
2021/07/18 07:25:13;;;;;;;9.73;3.60;;;;;;;21.55;67.28;101703.41;4978706;28;20462;-57
2021/07/18 07:27:41;;;;;;;17.43;5.27;;;;;;;21.50;65.87;101711.22;4977046;28;20489;-57
2021/07/18 07:30:11;;;;;;;10.87;3.60;;;;;;;21.53;65.92;101710.38;5016571;28;20483;-58
2021/07/18 07:32:39;;;;;;;8.33;3.00;;;;;;;21.52;65.71;101722.63;5015951;28;20489;-58
2021/07/18 07:35:10;;;;;;;7.67;4.03;;;;;;;21.53;65.72;101715.63;5007652;28;20470;-58
2021/07/18 07:37:37;;;;;;;12.70;4.73;;;;;;;21.55;65.71;101719.16;5002147;28;20500;-55
2021/07/18 07:40:09;;;;;;;12.43;3.50;;;;;;;21.76;64.74;101717.66;5017242;28;20485;-58
2021/07/18 07:42:36;;;;;;;15.10;8.13;;;;;;;21.95;64.22;101714.34;4997686;28;20481;-58
2021/07/18 07:45:05;;;;;;;39.73;21.03;;;;;;;21.81;63.96;101718.59;4997682;28;20458;-58
2021/07/18 07:47:33;;;;;;;21.30;12.17;;;;;;;21.99;63.74;101716.13;4995945;28;20496;-57
2021/07/18 07:50:00;;;;;;;42.53;19.67;;;;;;;22.16;63.58;101707.53;4997628;28;20478;-58
2021/07/18 07:52:28;;;;;;;22.03;10.33;;;;;;;21.98;63.82;101703.88;4996370;28;20557;-58
2021/07/18 07:54:56;;;;;;;13.30;7.67;;;;;;;22.16;63.98;101712.78;4997676;28;20775;-58
2021/07/18 07:57:25;;;;;;;25.60;13.83;;;;;;;22.28;62.84;101712.00;4996006;28;20818;-57
2021/07/18 07:59:53;;;;;;;6.77;3.67;;;;;;;22.12;63.80;101709.25;4999789;28;21004;-58
2021/07/18 08:02:20;;;;;;;29.57;11.43;;;;;;;22.31;62.81;101712.00;4996431;28;20486;-58
2021/07/18 08:04:48;;;;;;;7.53;3.63;;;;;;;22.31;62.16;101703.25;4996006;28;20908;-58
2021/07/18 08:07:15;;;;;;;9.50;4.20;;;;;;;22.20;63.70;101706.66;4985415;28;20494;-58
2021/07/18 08:09:43;;;;;;;6.83;3.27;;;;;;;22.34;62.67;101713.78;4997489;28;20462;-59
2021/07/18 08:12:11;;;;;;;9.90;3.90;;;;;;;22.60;62.17;101713.16;4996115;28;20486;-58
2021/07/18 08:14:40;;;;;;;7.20;4.03;;;;;;;22.19;61.34;101707.53;4997320;28;20450;-58
2021/07/18 08:17:08;;;;;;;10.40;3.80;;;;;;;22.29;62.06;101710.25;4995491;28;20482;-58
2021/07/18 08:19:38;;;;;;;19.53;8.67;;;;;;;22.31;62.18;101708.53;4996994;28;20470;-58
2021/07/18 08:22:05;;;;;;;13.30;4.47;;;;;;;22.19;62.72;101711.94;4995927;28;20482;-58
2021/07/18 08:24:33;;;;;;;10.83;3.47;;;;;;;22.54;61.24;101708.72;4997288;28;20778;-58
2021/07/18 08:27:01;;;;;;;16.27;5.80;;;;;;;22.78;60.50;101707.97;4995333;28;20475;-58
2021/07/18 08:29:28;;;;;;;20.40;7.37;;;;;;;23.00;59.98;101713.38;5010451;28;20887;-58
2021/07/18 08:31:58;;;;;;;8.43;3.10;;;;;;;22.75;59.59;101707.09;5014928;28;20957;-56
2021/07/18 08:34:27;;;;;;;11.53;3.97;;;;;;;22.88;61.28;101721.19;5016826;28;20461;-58
2021/07/18 08:36:55;;;;;;;8.00;3.70;;;;;;;23.08;60.35;101721.31;5014948;28;20485;-58
2021/07/18 08:39:22;;;;;;;12.63;3.37;;;;;;;22.67;60.99;101720.22;5000606;28;20458;-58
2021/07/18 08:41:53;;;;;;;9.10;3.70;;;;;;;22.63;62.92;101723.69;4995083;28;20482;-58
2021/07/18 08:44:21;;;;;;;17.10;5.47;;;;;;;22.60;61.46;101721.03;4996505;28;20471;-57
2021/07/18 08:46:49;;;;;;;8.57;3.27;;;;;;;23.00;60.89;101726.53;4995049;28;20489;-58
2021/07/18 08:49:18;;;;;;;10.77;5.73;;;;;;;22.96;60.38;101716.84;4995818;28;20455;-58
2021/07/18 08:51:46;;;;;;;7.60;3.90;;;;;;;23.20;59.30;101715.22;4984021;28;20486;-58
2021/07/18 08:54:18;;;;;;;25.97;15.00;;;;;;;23.46;58.69;101711.81;4985930;28;20489;-58
2021/07/18 08:56:47;;;;;;;27.70;15.77;;;;;;;23.12;57.97;101701.16;4980160;28;20493;-58
2021/07/18 08:59:14;;;;;;;11.47;3.57;;;;;;;23.19;58.49;101705.56;4976927;28;20463;-58
2021/07/18 09:01:44;;;;;;;14.17;8.60;;;;;;;23.17;59.48;101702.91;4975960;28;20483;-58
2021/07/18 09:04:12;;;;;;;9.13;2.93;;;;;;;23.20;60.16;101704.69;4987027;28;20497;-58
2021/07/18 09:06:43;;;;;;;13.33;6.37;;;;;;;22.85;60.12;101702.75;4991226;28;20480;-58
2021/07/18 09:09:13;;;;;;;10.40;3.63;;;;;;;22.76;60.52;101704.47;4987960;28;20558;-59
2021/07/18 09:11:41;;;;;;;9.93;3.67;;;;;;;22.66;60.51;101707.91;4984320;28;20577;-59
2021/07/18 09:14:09;;;;;;;9.53;3.63;;;;;;;22.77;60.00;101698.34;4985192;28;20480;-58
2021/07/18 09:16:38;;;;;;;17.90;9.17;;;;;;;23.30;58.81;101702.97;4983703;28;20497;-59
2021/07/18 09:19:24;;;;;;;16.17;8.33;;;;;;;23.65;57.50;101690.81;4993095;28;20466;-58
2021/07/18 09:22:09;;;;;;;21.00;12.17;;;;;;;23.73;57.02;101689.06;4994880;28;20482;-59
2021/07/18 09:24:39;;;;;;;8.77;3.63;;;;;;;23.71;57.48;101685.53;4996233;28;20458;-58
2021/07/18 09:27:11;;;;;;;12.60;5.90;;;;;;;23.43;58.29;101696.03;4994693;28;20485;-58
2021/07/18 09:29:41;;;;;;;5.63;3.10;;;;;;;23.64;57.31;101689.06;5011003;28;20464;-58
2021/07/18 09:32:12;;;;;;;5.37;2.90;;;;;;;23.54;56.71;101686.38;5014357;28;20488;-58
2021/07/18 09:34:41;;;;;;;6.83;3.77;;;;;;;23.56;57.14;101683.75;5015519;28;20464;-58
2021/07/18 09:37:13;;;;;;;10.57;3.73;;;;;;;23.61;57.59;101689.91;5002798;28;20488;-58
2021/07/18 09:39:43;;;;;;;38.40;19.00;;;;;;;23.82;57.10;101683.81;4995675;28;20462;-58
2021/07/18 09:42:11;;;;;;;37.30;19.57;;;;;;;23.70;56.91;101687.28;4994160;28;20789;-58
2021/07/18 09:44:43;;;;;;;37.57;22.93;;;;;;;23.68;56.07;101688.19;4995384;28;20462;-58
2021/07/18 09:47:11;;;;;;;6.90;3.30;;;;;;;23.80;56.83;101688.22;4989946;28;20923;-59
2021/07/18 09:49:39;;;;;;;39.83;23.77;;;;;;;23.96;56.06;101681.19;4995146;28;20470;-58
2021/07/18 09:52:21;;;;;;;11.93;5.73;;;;;;;24.21;55.77;101689.13;4993910;28;20493;-58
2021/07/18 09:54:50;;;;;;;12.43;3.17;;;;;;;24.30;55.71;101690.84;4996707;28;20465;-58
2021/07/18 09:57:32;;;;;;;9.90;3.70;;;;;;;24.46;56.02;101686.44;4991266;28;20482;-59
2021/07/18 10:00:00;;;;;;;18.83;10.30;;;;;;;24.59;55.35;101687.31;4992717;28;20492;-59
2021/07/18 10:02:29;;;;;;;13.03;4.37;;;;;;;24.63;54.75;101678.53;4994204;28;20528;-59
2021/07/18 10:04:57;;;;;;;13.30;5.50;;;;;;;24.57;53.98;101672.38;4995185;28;20627;-59
2021/07/18 10:07:31;;;;;;;12.70;5.10;;;;;;;24.58;53.13;101675.00;4993747;28;20474;-59
2021/07/18 10:09:58;;;;;;;9.90;3.00;;;;;;;24.45;52.40;101668.88;4992577;28;20482;-59
2021/07/18 10:12:26;;;;;;;9.83;2.97;;;;;;;24.56;53.67;101675.91;4993929;28;20936;-58
2021/07/18 10:14:54;;;;;;;19.50;7.33;;;;;;;24.04;54.55;101673.28;4995068;28;20909;-59
2021/07/18 10:17:24;;;;;;;8.13;3.00;;;;;;;24.32;54.82;101662.75;4993780;28;20482;-59
2021/07/18 10:19:51;;;;;;;8.83;2.90;;;;;;;24.67;53.15;101674.09;4995178;28;20474;-58
2021/07/18 10:22:19;;;;;;;8.30;2.30;;;;;;;24.85;52.96;101667.06;4993845;28;20489;-59
2021/07/18 10:24:49;;;;;;;7.07;2.97;;;;;;;24.92;51.97;101659.09;4995201;28;20466;-59
2021/07/18 10:27:20;;;;;;;5.07;2.20;;;;;;;24.64;54.75;101666.19;4993605;28;20489;-59
2021/07/18 10:29:52;;;;;;;8.20;2.60;;;;;;;24.53;54.23;101656.56;4995700;28;20478;-59
2021/07/18 10:32:21;;;;;;;9.73;2.53;;;;;;;24.16;55.02;101655.72;4994556;28;20510;-59
2021/07/18 10:34:52;;;;;;;8.57;3.43;;;;;;;24.54;54.79;101658.31;4998519;28;20942;-59
2021/07/18 10:37:20;;;;;;;5.97;2.33;;;;;;;24.70;53.77;101652.13;4994753;28;20861;-59
2021/07/18 10:39:54;;;;;;;5.47;2.50;;;;;;;24.31;54.00;101655.72;4998707;28;20564;-59
2021/07/18 10:42:32;;;;;;;7.70;3.70;;;;;;;24.46;54.74;101656.56;4999852;28;20561;-59
2021/07/18 10:45:16;;;;;;;6.03;2.60;;;;;;;24.96;53.33;101656.47;4995972;28;20458;-59
2021/07/18 10:47:55;;;;;;;7.40;3.53;;;;;;;25.19;53.21;101651.06;4994868;28;20477;-59
2021/07/18 10:50:55;;;;;;;8.10;2.27;;;;;;;25.14;52.93;101642.28;4996441;28;20478;-59
2021/07/18 10:53:24;;;;;;;8.50;3.10;;;;;;;24.83;51.76;101643.31;4995865;28;20880;-59
2021/07/18 10:55:55;;;;;;;9.63;2.13;;;;;;;24.70;51.91;101644.22;4996672;28;20473;-59
2021/07/18 10:58:47;;;;;;;6.27;2.17;;;;;;;24.68;51.48;101633.66;4998332;28;20462;-59
2021/07/18 11:01:41;;;;;;;9.13;2.97;;;;;;;24.66;51.76;101644.22;4997190;28;20466;-59
2021/07/18 11:04:44;;;;;;;6.53;2.90;;;;;;;24.97;49.91;101645.88;4994730;28;20545;-59
2021/07/18 11:07:29;;;;;;;5.70;1.63;;;;;;;25.25;50.65;101631.66;4998835;28;20484;-59
2021/07/18 11:09:58;;;;;;;6.30;1.90;;;;;;;25.06;49.35;101635.28;4998151;28;20478;-59
2021/07/18 11:12:29;;;;;;;7.97;2.37;;;;;;;25.29;48.82;101634.28;4996567;28;20505;-58
2021/07/18 11:15:31;;;;;;;9.73;2.40;;;;;;;25.47;48.22;101628.00;4998071;28;20486;-59
2021/07/18 11:18:03;;;;;;;6.10;2.20;;;;;;;25.31;48.59;101639.53;4926181;29;20564;-59
2021/07/18 11:20:59;;;;;;;8.23;2.30;;;;;;;25.41;48.70;101635.06;4985235;28;20873;-59
2021/07/18 11:23:29;;;;;;;5.57;2.07;;;;;;;25.59;47.72;101621.78;4996389;28;20474;-59
2021/07/18 11:26:02;;;;;;;9.93;3.20;;;;;;;25.59;48.35;101623.56;4996505;28;20512;-59
2021/07/18 11:29:09;;;;;;;6.03;1.47;;;;;;;25.65;49.39;101623.50;5003778;28;20493;-59